sensor_id;sensor_type;location;lat;lon;timestamp;temperature;humidity
28193;DHT22;15473;50.840;3.396;2022-07-06T00:01:01;14.50;99.90
28193;DHT22;15473;50.840;3.396;2022-07-06T00:03:48;14.50;99.90
28193;DHT22;15473;50.840;3.396;2022-07-06T00:06:35;14.60;99.90
28193;DHT22;15473;50.840;3.396;2022-07-06T00:09:21;14.50;99.90
28193;DHT22;15473;50.840;3.396;2022-07-06T00:12:07;14.60;99.90
28193;DHT22;15473;50.840;3.396;2022-07-06T00:14:53;14.40;99.90
28193;DHT22;15473;50.840;3.396;2022-07-06T00:17:39;14.30;99.90
28193;DHT22;15473;50.840;3.396;2022-07-06T00:20:25;14.40;99.90
28193;DHT22;15473;50.840;3.396;2022-07-06T00:23:10;14.40;99.90
28193;DHT22;15473;50.840;3.396;2022-07-06T00:25:57;14.50;99.90
28193;DHT22;15473;50.840;3.396;2022-07-06T00:28:43;14.40;99.90
28193;DHT22;15473;50.840;3.396;2022-07-06T00:31:30;14.40;99.90
28193;DHT22;15473;50.840;3.396;2022-07-06T00:34:17;14.50;99.90
28193;DHT22;15473;50.840;3.396;2022-07-06T00:37:02;14.40;99.90
28193;DHT22;15473;50.840;3.396;2022-07-06T00:39:48;14.50;99.90
28193;DHT22;15473;50.840;3.396;2022-07-06T00:42:42;14.60;99.90
28193;DHT22;15473;50.840;3.396;2022-07-06T00:45:28;14.60;99.90
28193;DHT22;15473;50.840;3.396;2022-07-06T00:48:14;14.50;99.90
28193;DHT22;15473;50.840;3.396;2022-07-06T00:51:00;14.40;99.90
28193;DHT22;15473;50.840;3.396;2022-07-06T00:53:46;14.30;99.90
28193;DHT22;15473;50.840;3.396;2022-07-06T00:56:32;14.20;99.90
28193;DHT22;15473;50.840;3.396;2022-07-06T00:59:19;14.30;99.90
28193;DHT22;15473;50.840;3.396;2022-07-06T01:02:05;14.40;99.90
28193;DHT22;15473;50.840;3.396;2022-07-06T01:04:51;14.40;99.90
28193;DHT22;15473;50.840;3.396;2022-07-06T01:07:39;14.40;99.90
28193;DHT22;15473;50.840;3.396;2022-07-06T01:10:26;14.50;99.90
28193;DHT22;15473;50.840;3.396;2022-07-06T01:13:13;14.50;99.90
28193;DHT22;15473;50.840;3.396;2022-07-06T01:16:00;14.40;99.90
28193;DHT22;15473;50.840;3.396;2022-07-06T01:18:46;14.50;99.90
28193;DHT22;15473;50.840;3.396;2022-07-06T01:21:32;14.60;99.90
28193;DHT22;15473;50.840;3.396;2022-07-06T01:24:18;14.60;99.90
28193;DHT22;15473;50.840;3.396;2022-07-06T01:27:04;14.50;99.90
28193;DHT22;15473;50.840;3.396;2022-07-06T01:30:13;14.40;99.90
28193;DHT22;15473;50.840;3.396;2022-07-06T01:32:59;14.60;99.90
28193;DHT22;15473;50.840;3.396;2022-07-06T01:35:45;14.70;99.90
28193;DHT22;15473;50.840;3.396;2022-07-06T01:38:32;14.70;99.90
28193;DHT22;15473;50.840;3.396;2022-07-06T01:41:21;14.80;99.90
28193;DHT22;15473;50.840;3.396;2022-07-06T01:44:07;14.80;99.90
28193;DHT22;15473;50.840;3.396;2022-07-06T01:46:54;14.90;99.90
28193;DHT22;15473;50.840;3.396;2022-07-06T01:49:40;14.80;99.90
28193;DHT22;15473;50.840;3.396;2022-07-06T01:52:26;14.80;99.90
28193;DHT22;15473;50.840;3.396;2022-07-06T01:55:12;14.70;99.90
28193;DHT22;15473;50.840;3.396;2022-07-06T01:57:59;14.70;99.90
28193;DHT22;15473;50.840;3.396;2022-07-06T02:00:45;14.70;99.90
28193;DHT22;15473;50.840;3.396;2022-07-06T02:03:30;14.70;99.90
28193;DHT22;15473;50.840;3.396;2022-07-06T02:06:17;14.70;99.90
28193;DHT22;15473;50.840;3.396;2022-07-06T02:09:03;14.70;99.90
28193;DHT22;15473;50.840;3.396;2022-07-06T02:11:49;14.70;99.90
28193;DHT22;15473;50.840;3.396;2022-07-06T02:14:35;14.60;99.90
28193;DHT22;15473;50.840;3.396;2022-07-06T02:17:22;14.60;99.90
28193;DHT22;15473;50.840;3.396;2022-07-06T02:20:08;14.70;99.90
28193;DHT22;15473;50.840;3.396;2022-07-06T02:22:55;14.70;99.90
28193;DHT22;15473;50.840;3.396;2022-07-06T02:25:41;14.80;99.90
28193;DHT22;15473;50.840;3.396;2022-07-06T02:28:27;14.70;99.90
28193;DHT22;15473;50.840;3.396;2022-07-06T02:31:14;14.70;99.90
28193;DHT22;15473;50.840;3.396;2022-07-06T02:34:00;14.70;99.90
28193;DHT22;15473;50.840;3.396;2022-07-06T02:36:47;14.60;99.90
28193;DHT22;15473;50.840;3.396;2022-07-06T02:39:33;14.60;99.90
28193;DHT22;15473;50.840;3.396;2022-07-06T02:42:18;14.50;99.90
28193;DHT22;15473;50.840;3.396;2022-07-06T02:45:05;14.40;99.90
28193;DHT22;15473;50.840;3.396;2022-07-06T02:47:52;14.40;99.90
28193;DHT22;15473;50.840;3.396;2022-07-06T02:50:40;14.40;99.90
28193;DHT22;15473;50.840;3.396;2022-07-06T02:53:25;14.40;99.90
28193;DHT22;15473;50.840;3.396;2022-07-06T02:56:12;14.40;99.90
28193;DHT22;15473;50.840;3.396;2022-07-06T02:58:57;14.40;99.90
28193;DHT22;15473;50.840;3.396;2022-07-06T03:01:44;14.40;99.90
28193;DHT22;15473;50.840;3.396;2022-07-06T03:04:30;14.30;99.90
28193;DHT22;15473;50.840;3.396;2022-07-06T03:07:16;14.20;99.90
28193;DHT22;15473;50.840;3.396;2022-07-06T03:10:03;14.20;99.90
28193;DHT22;15473;50.840;3.396;2022-07-06T03:12:49;14.10;99.90
28193;DHT22;15473;50.840;3.396;2022-07-06T03:15:37;14.10;99.90
28193;DHT22;15473;50.840;3.396;2022-07-06T03:18:24;14.10;99.90
28193;DHT22;15473;50.840;3.396;2022-07-06T03:21:10;14.00;99.90
28193;DHT22;15473;50.840;3.396;2022-07-06T03:23:56;14.00;99.90
28193;DHT22;15473;50.840;3.396;2022-07-06T03:26:42;14.00;99.90
28193;DHT22;15473;50.840;3.396;2022-07-06T03:29:28;14.00;99.90
28193;DHT22;15473;50.840;3.396;2022-07-06T03:32:15;13.90;99.90
28193;DHT22;15473;50.840;3.396;2022-07-06T03:35:01;13.90;99.90
28193;DHT22;15473;50.840;3.396;2022-07-06T03:37:47;13.90;99.90
28193;DHT22;15473;50.840;3.396;2022-07-06T03:40:34;13.90;99.90
28193;DHT22;15473;50.840;3.396;2022-07-06T03:43:20;13.80;99.90
28193;DHT22;15473;50.840;3.396;2022-07-06T03:46:06;13.80;99.90
28193;DHT22;15473;50.840;3.396;2022-07-06T03:48:52;13.80;99.90
28193;DHT22;15473;50.840;3.396;2022-07-06T03:51:37;13.80;99.90
28193;DHT22;15473;50.840;3.396;2022-07-06T03:54:25;13.80;99.90
28193;DHT22;15473;50.840;3.396;2022-07-06T03:57:10;13.90;99.90
28193;DHT22;15473;50.840;3.396;2022-07-06T03:59:58;13.90;99.90
28193;DHT22;15473;50.840;3.396;2022-07-06T04:02:44;14.00;99.90
28193;DHT22;15473;50.840;3.396;2022-07-06T04:05:30;14.00;99.90
28193;DHT22;15473;50.840;3.396;2022-07-06T04:08:16;14.00;99.90
28193;DHT22;15473;50.840;3.396;2022-07-06T04:11:02;14.20;99.90
28193;DHT22;15473;50.840;3.396;2022-07-06T04:13:48;14.20;99.90
28193;DHT22;15473;50.840;3.396;2022-07-06T04:16:34;14.40;99.90
28193;DHT22;15473;50.840;3.396;2022-07-06T04:19:19;14.40;99.90
28193;DHT22;15473;50.840;3.396;2022-07-06T04:22:06;14.50;99.90
28193;DHT22;15473;50.840;3.396;2022-07-06T04:24:51;14.50;99.90
28193;DHT22;15473;50.840;3.396;2022-07-06T04:27:38;14.50;99.90
28193;DHT22;15473;50.840;3.396;2022-07-06T04:30:24;14.50;99.90
28193;DHT22;15473;50.840;3.396;2022-07-06T04:33:10;14.60;99.90
28193;DHT22;15473;50.840;3.396;2022-07-06T04:35:59;14.60;99.90
28193;DHT22;15473;50.840;3.396;2022-07-06T04:38:44;14.70;99.90
28193;DHT22;15473;50.840;3.396;2022-07-06T04:41:33;14.70;99.90
28193;DHT22;15473;50.840;3.396;2022-07-06T04:44:19;14.80;99.90
28193;DHT22;15473;50.840;3.396;2022-07-06T04:47:05;14.80;99.90
28193;DHT22;15473;50.840;3.396;2022-07-06T04:49:52;14.80;99.90
28193;DHT22;15473;50.840;3.396;2022-07-06T04:52:37;14.90;99.90
28193;DHT22;15473;50.840;3.396;2022-07-06T04:55:23;15.00;99.90
28193;DHT22;15473;50.840;3.396;2022-07-06T04:58:09;15.10;99.90
28193;DHT22;15473;50.840;3.396;2022-07-06T05:00:56;15.10;99.90
28193;DHT22;15473;50.840;3.396;2022-07-06T05:03:41;15.10;99.90
28193;DHT22;15473;50.840;3.396;2022-07-06T05:06:28;15.30;99.90
28193;DHT22;15473;50.840;3.396;2022-07-06T05:09:15;15.50;99.90
28193;DHT22;15473;50.840;3.396;2022-07-06T05:12:01;15.60;99.90
28193;DHT22;15473;50.840;3.396;2022-07-06T05:14:47;15.70;99.90
28193;DHT22;15473;50.840;3.396;2022-07-06T05:17:34;15.80;99.90
28193;DHT22;15473;50.840;3.396;2022-07-06T05:20:21;16.10;99.90
28193;DHT22;15473;50.840;3.396;2022-07-06T05:23:08;16.40;99.90
28193;DHT22;15473;50.840;3.396;2022-07-06T05:25:54;16.70;99.90
28193;DHT22;15473;50.840;3.396;2022-07-06T05:28:40;16.90;99.90
28193;DHT22;15473;50.840;3.396;2022-07-06T05:31:27;16.90;99.90
28193;DHT22;15473;50.840;3.396;2022-07-06T05:34:13;17.00;99.90
28193;DHT22;15473;50.840;3.396;2022-07-06T05:37:00;17.00;99.90
28193;DHT22;15473;50.840;3.396;2022-07-06T05:39:46;17.10;99.90
28193;DHT22;15473;50.840;3.396;2022-07-06T05:42:34;17.30;99.90
28193;DHT22;15473;50.840;3.396;2022-07-06T05:45:19;17.50;99.90
28193;DHT22;15473;50.840;3.396;2022-07-06T05:48:07;17.80;99.90
28193;DHT22;15473;50.840;3.396;2022-07-06T05:51:12;18.10;99.90
28193;DHT22;15473;50.840;3.396;2022-07-06T05:53:58;18.40;99.90
28193;DHT22;15473;50.840;3.396;2022-07-06T05:56:44;18.60;99.90
28193;DHT22;15473;50.840;3.396;2022-07-06T05:59:30;18.70;99.90
28193;DHT22;15473;50.840;3.396;2022-07-06T06:02:16;18.80;99.90
28193;DHT22;15473;50.840;3.396;2022-07-06T06:05:02;19.30;99.90
28193;DHT22;15473;50.840;3.396;2022-07-06T06:07:54;19.70;99.90
28193;DHT22;15473;50.840;3.396;2022-07-06T06:10:40;20.20;99.90
28193;DHT22;15473;50.840;3.396;2022-07-06T06:13:27;20.80;99.90
28193;DHT22;15473;50.840;3.396;2022-07-06T06:16:14;21.70;99.90
28193;DHT22;15473;50.840;3.396;2022-07-06T06:19:01;22.50;99.90
28193;DHT22;15473;50.840;3.396;2022-07-06T06:21:47;23.20;99.90
28193;DHT22;15473;50.840;3.396;2022-07-06T06:24:33;23.60;99.90
28193;DHT22;15473;50.840;3.396;2022-07-06T06:27:19;23.60;99.90
28193;DHT22;15473;50.840;3.396;2022-07-06T06:30:06;23.10;99.90
28193;DHT22;15473;50.840;3.396;2022-07-06T06:33:15;22.60;99.90
28193;DHT22;15473;50.840;3.396;2022-07-06T06:36:02;22.90;99.90
28193;DHT22;15473;50.840;3.396;2022-07-06T06:38:48;24.50;99.90
28193;DHT22;15473;50.840;3.396;2022-07-06T06:41:35;26.10;99.90
28193;DHT22;15473;50.840;3.396;2022-07-06T06:44:21;27.60;99.50
28193;DHT22;15473;50.840;3.396;2022-07-06T06:47:14;28.10;97.30
28193;DHT22;15473;50.840;3.396;2022-07-06T06:50:01;26.80;97.40
28193;DHT22;15473;50.840;3.396;2022-07-06T06:52:47;25.70;99.00
28193;DHT22;15473;50.840;3.396;2022-07-06T06:55:33;25.10;99.20
28193;DHT22;15473;50.840;3.396;2022-07-06T06:58:21;24.50;99.60
28193;DHT22;15473;50.840;3.396;2022-07-06T07:01:07;24.00;99.90
28193;DHT22;15473;50.840;3.396;2022-07-06T07:03:54;24.10;99.50
28193;DHT22;15473;50.840;3.396;2022-07-06T07:06:44;23.80;99.90
28193;DHT22;15473;50.840;3.396;2022-07-06T07:09:31;23.60;99.90
28193;DHT22;15473;50.840;3.396;2022-07-06T07:12:17;24.30;99.90
28193;DHT22;15473;50.840;3.396;2022-07-06T07:15:06;25.30;99.80
28193;DHT22;15473;50.840;3.396;2022-07-06T07:17:52;26.60;98.70
28193;DHT22;15473;50.840;3.396;2022-07-06T07:20:39;28.10;96.50
28193;DHT22;15473;50.840;3.396;2022-07-06T07:23:25;29.20;94.50
28193;DHT22;15473;50.840;3.396;2022-07-06T07:26:12;29.10;93.80
28193;DHT22;15473;50.840;3.396;2022-07-06T07:28:59;27.90;95.20
28193;DHT22;15473;50.840;3.396;2022-07-06T07:31:45;26.90;96.00
28193;DHT22;15473;50.840;3.396;2022-07-06T07:34:31;27.40;96.90
28193;DHT22;15473;50.840;3.396;2022-07-06T07:37:17;29.40;94.40
28193;DHT22;15473;50.840;3.396;2022-07-06T07:40:04;31.80;92.90
28193;DHT22;15473;50.840;3.396;2022-07-06T07:42:51;33.50;90.60
28193;DHT22;15473;50.840;3.396;2022-07-06T07:45:38;34.50;88.10
28193;DHT22;15473;50.840;3.396;2022-07-06T07:48:24;35.20;84.30
28193;DHT22;15473;50.840;3.396;2022-07-06T07:51:10;35.20;82.90
28193;DHT22;15473;50.840;3.396;2022-07-06T07:53:59;36.10;82.60
28193;DHT22;15473;50.840;3.396;2022-07-06T07:56:45;37.10;80.70
28193;DHT22;15473;50.840;3.396;2022-07-06T07:59:32;36.70;78.60
28193;DHT22;15473;50.840;3.396;2022-07-06T08:02:18;36.30;80.00
28193;DHT22;15473;50.840;3.396;2022-07-06T08:05:07;34.70;79.80
28193;DHT22;15473;50.840;3.396;2022-07-06T08:07:53;32.30;85.30
28193;DHT22;15473;50.840;3.396;2022-07-06T08:10:40;30.00;87.60
28193;DHT22;15473;50.840;3.396;2022-07-06T08:13:26;28.00;91.40
28193;DHT22;15473;50.840;3.396;2022-07-06T08:16:12;26.60;92.50
28193;DHT22;15473;50.840;3.396;2022-07-06T08:18:59;25.60;93.70
28193;DHT22;15473;50.840;3.396;2022-07-06T08:21:45;25.10;94.30
28193;DHT22;15473;50.840;3.396;2022-07-06T08:24:33;24.80;95.30
28193;DHT22;15473;50.840;3.396;2022-07-06T08:27:19;24.30;95.20
28193;DHT22;15473;50.840;3.396;2022-07-06T08:30:09;24.00;97.40
28193;DHT22;15473;50.840;3.396;2022-07-06T08:32:56;23.80;96.90
28193;DHT22;15473;50.840;3.396;2022-07-06T08:35:43;23.90;97.30
28193;DHT22;15473;50.840;3.396;2022-07-06T08:38:30;24.00;97.50
28193;DHT22;15473;50.840;3.396;2022-07-06T08:41:17;23.70;96.40
28193;DHT22;15473;50.840;3.396;2022-07-06T08:44:04;23.40;97.70
28193;DHT22;15473;50.840;3.396;2022-07-06T08:46:52;23.20;98.60
28193;DHT22;15473;50.840;3.396;2022-07-06T08:49:41;23.30;98.30
28193;DHT22;15473;50.840;3.396;2022-07-06T08:52:28;23.30;97.80
28193;DHT22;15473;50.840;3.396;2022-07-06T08:55:15;23.20;99.40
28193;DHT22;15473;50.840;3.396;2022-07-06T08:58:01;23.30;98.90
28193;DHT22;15473;50.840;3.396;2022-07-06T09:00:50;23.20;98.30
28193;DHT22;15473;50.840;3.396;2022-07-06T09:03:36;22.90;98.30
28193;DHT22;15473;50.840;3.396;2022-07-06T09:06:27;22.60;99.40
28193;DHT22;15473;50.840;3.396;2022-07-06T09:09:18;22.60;99.80
28193;DHT22;15473;50.840;3.396;2022-07-06T09:12:03;22.70;99.80
28193;DHT22;15473;50.840;3.396;2022-07-06T09:14:49;22.90;99.90
28193;DHT22;15473;50.840;3.396;2022-07-06T09:17:41;23.40;99.90
28193;DHT22;15473;50.840;3.396;2022-07-06T09:20:28;23.60;99.10
28193;DHT22;15473;50.840;3.396;2022-07-06T09:23:16;23.80;99.20
28193;DHT22;15473;50.840;3.396;2022-07-06T09:26:08;23.90;97.50
28193;DHT22;15473;50.840;3.396;2022-07-06T09:28:55;23.90;98.00
28193;DHT22;15473;50.840;3.396;2022-07-06T09:31:41;23.90;98.50
28193;DHT22;15473;50.840;3.396;2022-07-06T09:34:42;23.70;98.70
28193;DHT22;15473;50.840;3.396;2022-07-06T09:37:30;23.40;98.90
28193;DHT22;15473;50.840;3.396;2022-07-06T09:40:17;23.20;99.50
28193;DHT22;15473;50.840;3.396;2022-07-06T09:43:20;23.30;99.20
28193;DHT22;15473;50.840;3.396;2022-07-06T09:46:07;23.40;99.70
28193;DHT22;15473;50.840;3.396;2022-07-06T09:48:54;23.60;99.60
28193;DHT22;15473;50.840;3.396;2022-07-06T09:51:40;23.50;99.10
28193;DHT22;15473;50.840;3.396;2022-07-06T09:54:26;23.50;99.80
28193;DHT22;15473;50.840;3.396;2022-07-06T09:57:14;23.30;99.00
28193;DHT22;15473;50.840;3.396;2022-07-06T10:00:00;23.10;98.40
28193;DHT22;15473;50.840;3.396;2022-07-06T10:02:47;23.10;99.50
28193;DHT22;15473;50.840;3.396;2022-07-06T10:05:39;23.10;99.90
28193;DHT22;15473;50.840;3.396;2022-07-06T10:08:27;23.20;99.90
28193;DHT22;15473;50.840;3.396;2022-07-06T10:11:14;23.40;99.90
28193;DHT22;15473;50.840;3.396;2022-07-06T10:14:01;23.60;99.90
28193;DHT22;15473;50.840;3.396;2022-07-06T10:16:50;23.70;99.90
28193;DHT22;15473;50.840;3.396;2022-07-06T10:19:36;23.80;99.90
28193;DHT22;15473;50.840;3.396;2022-07-06T10:22:24;23.70;99.20
28193;DHT22;15473;50.840;3.396;2022-07-06T10:25:11;23.50;99.90
28193;DHT22;15473;50.840;3.396;2022-07-06T10:27:58;23.50;99.90
28193;DHT22;15473;50.840;3.396;2022-07-06T10:30:45;23.40;99.90
28193;DHT22;15473;50.840;3.396;2022-07-06T10:33:33;23.50;99.90
28193;DHT22;15473;50.840;3.396;2022-07-06T10:36:20;23.70;99.90
28193;DHT22;15473;50.840;3.396;2022-07-06T10:39:08;23.70;99.90
28193;DHT22;15473;50.840;3.396;2022-07-06T10:42:38;23.50;99.90
28193;DHT22;15473;50.840;3.396;2022-07-06T10:45:01;23.60;99.90
28193;DHT22;15473;50.840;3.396;2022-07-06T10:47:50;23.60;99.90
28193;DHT22;15473;50.840;3.396;2022-07-06T10:50:40;23.60;99.90
28193;DHT22;15473;50.840;3.396;2022-07-06T10:53:28;23.50;99.90
28193;DHT22;15473;50.840;3.396;2022-07-06T10:56:15;23.60;99.90
28193;DHT22;15473;50.840;3.396;2022-07-06T10:59:12;23.90;99.90
28193;DHT22;15473;50.840;3.396;2022-07-06T11:02:15;23.80;99.90
28193;DHT22;15473;50.840;3.396;2022-07-06T11:05:02;23.60;99.90
28193;DHT22;15473;50.840;3.396;2022-07-06T11:07:50;23.70;99.90
28193;DHT22;15473;50.840;3.396;2022-07-06T11:10:49;23.80;99.90
28193;DHT22;15473;50.840;3.396;2022-07-06T11:13:41;23.90;99.90
28193;DHT22;15473;50.840;3.396;2022-07-06T11:16:26;23.90;99.90
28193;DHT22;15473;50.840;3.396;2022-07-06T11:19:25;23.90;99.90
28193;DHT22;15473;50.840;3.396;2022-07-06T11:22:10;23.70;99.90
28193;DHT22;15473;50.840;3.396;2022-07-06T11:24:57;23.50;98.60
28193;DHT22;15473;50.840;3.396;2022-07-06T11:27:45;23.50;98.80
28193;DHT22;15473;50.840;3.396;2022-07-06T11:30:32;23.30;99.10
28193;DHT22;15473;50.840;3.396;2022-07-06T11:33:31;23.10;99.30
28193;DHT22;15473;50.840;3.396;2022-07-06T11:36:21;23.00;99.90
28193;DHT22;15473;50.840;3.396;2022-07-06T11:39:08;22.90;99.90
28193;DHT22;15473;50.840;3.396;2022-07-06T11:41:56;22.90;99.90
28193;DHT22;15473;50.840;3.396;2022-07-06T11:44:43;23.20;99.90
28193;DHT22;15473;50.840;3.396;2022-07-06T11:47:32;23.50;99.90
28193;DHT22;15473;50.840;3.396;2022-07-06T11:50:25;23.70;99.90
28193;DHT22;15473;50.840;3.396;2022-07-06T11:53:14;23.70;99.50
28193;DHT22;15473;50.840;3.396;2022-07-06T11:56:05;23.50;99.50
28193;DHT22;15473;50.840;3.396;2022-07-06T11:58:54;23.60;99.10
28193;DHT22;15473;50.840;3.396;2022-07-06T12:01:41;23.50;99.90
28193;DHT22;15473;50.840;3.396;2022-07-06T12:04:29;23.80;99.90
28193;DHT22;15473;50.840;3.396;2022-07-06T12:07:17;23.70;99.70
28193;DHT22;15473;50.840;3.396;2022-07-06T12:10:04;23.60;99.90
28193;DHT22;15473;50.840;3.396;2022-07-06T12:12:50;23.60;99.90
28193;DHT22;15473;50.840;3.396;2022-07-06T12:15:36;23.80;99.90
28193;DHT22;15473;50.840;3.396;2022-07-06T12:18:35;24.00;99.90
28193;DHT22;15473;50.840;3.396;2022-07-06T12:21:15;24.20;99.30
28193;DHT22;15473;50.840;3.396;2022-07-06T12:24:06;24.30;98.10
28193;DHT22;15473;50.840;3.396;2022-07-06T12:26:54;24.30;98.70
28193;DHT22;15473;50.840;3.396;2022-07-06T12:29:43;24.30;98.30
28193;DHT22;15473;50.840;3.396;2022-07-06T12:32:30;24.30;98.50
28193;DHT22;15473;50.840;3.396;2022-07-06T12:35:16;24.10;98.90
28193;DHT22;15473;50.840;3.396;2022-07-06T12:38:03;23.90;97.80
28193;DHT22;15473;50.840;3.396;2022-07-06T12:40:50;23.80;98.60
28193;DHT22;15473;50.840;3.396;2022-07-06T12:43:38;23.80;98.60
28193;DHT22;15473;50.840;3.396;2022-07-06T12:46:29;23.90;98.20
28193;DHT22;15473;50.840;3.396;2022-07-06T12:49:23;24.00;98.40
28193;DHT22;15473;50.840;3.396;2022-07-06T12:52:11;24.20;98.20
28193;DHT22;15473;50.840;3.396;2022-07-06T12:55:00;24.20;97.30
28193;DHT22;15473;50.840;3.396;2022-07-06T12:57:49;24.30;97.80
28193;DHT22;15473;50.840;3.396;2022-07-06T13:00:46;24.50;98.90
28193;DHT22;15473;50.840;3.396;2022-07-06T13:03:41;24.50;98.40
28193;DHT22;15473;50.840;3.396;2022-07-06T13:06:36;24.50;97.80
28193;DHT22;15473;50.840;3.396;2022-07-06T13:09:20;24.40;96.20
28193;DHT22;15473;50.840;3.396;2022-07-06T13:12:07;24.30;97.50
28193;DHT22;15473;50.840;3.396;2022-07-06T13:14:53;24.30;98.10
28193;DHT22;15473;50.840;3.396;2022-07-06T13:17:41;24.50;97.90
28193;DHT22;15473;50.840;3.396;2022-07-06T13:20:28;24.60;97.50
28193;DHT22;15473;50.840;3.396;2022-07-06T13:23:14;24.70;97.80
28193;DHT22;15473;50.840;3.396;2022-07-06T13:26:01;24.80;97.60
28193;DHT22;15473;50.840;3.396;2022-07-06T13:28:47;25.00;97.30
28193;DHT22;15473;50.840;3.396;2022-07-06T13:31:34;25.20;96.50
28193;DHT22;15473;50.840;3.396;2022-07-06T13:34:21;25.30;96.90
28193;DHT22;15473;50.840;3.396;2022-07-06T13:37:09;25.40;97.00
28193;DHT22;15473;50.840;3.396;2022-07-06T13:39:59;25.30;96.70
28193;DHT22;15473;50.840;3.396;2022-07-06T13:42:45;25.30;96.90
28193;DHT22;15473;50.840;3.396;2022-07-06T13:45:31;25.30;96.90
28193;DHT22;15473;50.840;3.396;2022-07-06T13:48:18;25.30;96.70
28193;DHT22;15473;50.840;3.396;2022-07-06T13:51:04;25.30;96.50
28193;DHT22;15473;50.840;3.396;2022-07-06T13:53:51;25.40;96.10
28193;DHT22;15473;50.840;3.396;2022-07-06T13:56:38;25.50;96.30
28193;DHT22;15473;50.840;3.396;2022-07-06T13:59:25;25.40;96.50
28193;DHT22;15473;50.840;3.396;2022-07-06T14:02:11;25.40;96.40
28193;DHT22;15473;50.840;3.396;2022-07-06T14:04:57;25.40;97.20
28193;DHT22;15473;50.840;3.396;2022-07-06T14:07:43;25.30;96.90
28193;DHT22;15473;50.840;3.396;2022-07-06T14:10:30;25.20;97.30
28193;DHT22;15473;50.840;3.396;2022-07-06T14:13:16;25.20;97.30
28193;DHT22;15473;50.840;3.396;2022-07-06T14:16:04;25.10;97.30
28193;DHT22;15473;50.840;3.396;2022-07-06T14:18:50;25.10;97.10
28193;DHT22;15473;50.840;3.396;2022-07-06T14:21:37;25.10;97.40
28193;DHT22;15473;50.840;3.396;2022-07-06T14:24:22;25.20;97.10
28193;DHT22;15473;50.840;3.396;2022-07-06T14:27:08;25.40;97.70
28193;DHT22;15473;50.840;3.396;2022-07-06T14:29:55;25.50;97.40
28193;DHT22;15473;50.840;3.396;2022-07-06T14:32:41;25.50;97.20
28193;DHT22;15473;50.840;3.396;2022-07-06T14:35:29;25.40;97.10
28193;DHT22;15473;50.840;3.396;2022-07-06T14:38:17;25.30;96.90
28193;DHT22;15473;50.840;3.396;2022-07-06T14:41:03;25.20;97.10
28193;DHT22;15473;50.840;3.396;2022-07-06T14:43:49;25.00;97.10
28193;DHT22;15473;50.840;3.396;2022-07-06T14:46:35;24.80;96.90
28193;DHT22;15473;50.840;3.396;2022-07-06T14:49:22;24.70;97.30
28193;DHT22;15473;50.840;3.396;2022-07-06T14:52:08;24.60;96.70
28193;DHT22;15473;50.840;3.396;2022-07-06T14:54:55;24.60;96.70
28193;DHT22;15473;50.840;3.396;2022-07-06T14:57:43;24.60;97.00
28193;DHT22;15473;50.840;3.396;2022-07-06T15:00:30;24.60;95.40
28193;DHT22;15473;50.840;3.396;2022-07-06T15:03:16;24.40;95.10
28193;DHT22;15473;50.840;3.396;2022-07-06T15:06:03;24.40;95.60
28193;DHT22;15473;50.840;3.396;2022-07-06T15:08:49;24.40;96.60
28193;DHT22;15473;50.840;3.396;2022-07-06T15:11:35;24.30;95.80
28193;DHT22;15473;50.840;3.396;2022-07-06T15:14:22;24.30;96.00
28193;DHT22;15473;50.840;3.396;2022-07-06T15:17:08;24.30;95.80
28193;DHT22;15473;50.840;3.396;2022-07-06T15:19:55;24.20;96.20
28193;DHT22;15473;50.840;3.396;2022-07-06T15:22:41;24.10;96.00
28193;DHT22;15473;50.840;3.396;2022-07-06T15:25:27;24.00;96.50
28193;DHT22;15473;50.840;3.396;2022-07-06T15:28:14;24.10;96.30
28193;DHT22;15473;50.840;3.396;2022-07-06T15:31:01;24.00;95.10
28193;DHT22;15473;50.840;3.396;2022-07-06T15:33:47;23.90;95.40
28193;DHT22;15473;50.840;3.396;2022-07-06T15:36:34;23.80;95.50
28193;DHT22;15473;50.840;3.396;2022-07-06T15:39:20;23.80;95.50
28193;DHT22;15473;50.840;3.396;2022-07-06T15:42:07;23.80;95.90
28193;DHT22;15473;50.840;3.396;2022-07-06T15:44:53;23.80;96.60
28193;DHT22;15473;50.840;3.396;2022-07-06T15:47:40;23.90;96.20
28193;DHT22;15473;50.840;3.396;2022-07-06T15:50:26;23.90;96.80
28193;DHT22;15473;50.840;3.396;2022-07-06T15:53:12;23.90;97.40
28193;DHT22;15473;50.840;3.396;2022-07-06T15:56:00;23.80;98.10
28193;DHT22;15473;50.840;3.396;2022-07-06T15:58:46;23.90;98.50
28193;DHT22;15473;50.840;3.396;2022-07-06T16:01:33;23.80;98.90
28193;DHT22;15473;50.840;3.396;2022-07-06T16:04:20;23.80;98.90
28193;DHT22;15473;50.840;3.396;2022-07-06T16:07:06;23.60;99.60
28193;DHT22;15473;50.840;3.396;2022-07-06T16:09:52;23.50;99.90
28193;DHT22;15473;50.840;3.396;2022-07-06T16:12:38;23.50;99.90
28193;DHT22;15473;50.840;3.396;2022-07-06T16:15:25;23.60;99.90
28193;DHT22;15473;50.840;3.396;2022-07-06T16:18:12;23.70;99.90
28193;DHT22;15473;50.840;3.396;2022-07-06T16:20:58;23.90;99.90
28193;DHT22;15473;50.840;3.396;2022-07-06T16:23:45;23.90;99.90
28193;DHT22;15473;50.840;3.396;2022-07-06T16:26:31;23.90;99.90
28193;DHT22;15473;50.840;3.396;2022-07-06T16:29:17;23.90;99.90
28193;DHT22;15473;50.840;3.396;2022-07-06T16:33:33;24.00;99.90
28193;DHT22;15473;50.840;3.396;2022-07-06T16:36:19;24.10;99.90
28193;DHT22;15473;50.840;3.396;2022-07-06T16:39:06;24.10;99.90
28193;DHT22;15473;50.840;3.396;2022-07-06T16:41:52;24.10;99.90
28193;DHT22;15473;50.840;3.396;2022-07-06T16:44:38;24.10;99.90
28193;DHT22;15473;50.840;3.396;2022-07-06T16:47:25;24.10;99.90
28193;DHT22;15473;50.840;3.396;2022-07-06T16:50:11;24.00;99.90
28193;DHT22;15473;50.840;3.396;2022-07-06T16:52:57;23.90;99.90
28193;DHT22;15473;50.840;3.396;2022-07-06T16:55:44;23.90;99.90
28193;DHT22;15473;50.840;3.396;2022-07-06T16:58:30;23.80;99.90
28193;DHT22;15473;50.840;3.396;2022-07-06T17:01:17;23.70;99.90
28193;DHT22;15473;50.840;3.396;2022-07-06T17:04:04;23.50;99.90
28193;DHT22;15473;50.840;3.396;2022-07-06T17:06:50;23.50;99.90
28193;DHT22;15473;50.840;3.396;2022-07-06T17:09:36;23.50;99.90
28193;DHT22;15473;50.840;3.396;2022-07-06T17:12:23;23.50;99.90
28193;DHT22;15473;50.840;3.396;2022-07-06T17:15:09;23.50;99.90
28193;DHT22;15473;50.840;3.396;2022-07-06T17:17:57;23.40;99.90
28193;DHT22;15473;50.840;3.396;2022-07-06T17:20:44;23.30;99.90
28193;DHT22;15473;50.840;3.396;2022-07-06T17:23:30;23.30;99.90
28193;DHT22;15473;50.840;3.396;2022-07-06T17:26:17;23.30;99.90
28193;DHT22;15473;50.840;3.396;2022-07-06T17:29:04;23.20;99.90
28193;DHT22;15473;50.840;3.396;2022-07-06T17:31:50;23.30;99.90
28193;DHT22;15473;50.840;3.396;2022-07-06T17:34:37;23.20;99.90
28193;DHT22;15473;50.840;3.396;2022-07-06T17:37:24;23.20;99.90